Time;durP1;ratioP1;P1;durP2;ratioP2;P2;SDS_P1;SDS_P2;PMS_P1;PMS_P2;Temp;Humidity;BMP_temperature;BMP_pressure;BME280_temperature;BME280_humidity;BME280_pressure;Samples;Min_cycle;Max_cycle;Signal;HPM_P1;HPM_P2
2024/03/27 00:01:12;;;;;;;9.65;3.80;;;;;;;10.91;100.00;98445.31;5087600;28;20062;-67
2024/03/27 00:03:59;;;;;;;12.32;4.10;;;;;;;10.90;100.00;98434.78;5077675;28;20082;-66
2024/03/27 00:06:46;;;;;;;12.07;4.32;;;;;;;10.90;100.00;98440.22;5063046;28;20113;-66
2024/03/27 00:09:33;;;;;;;10.82;4.28;;;;;;;10.90;100.00;98438.28;5076251;28;20072;-66
2024/03/27 00:12:20;;;;;;;8.77;3.65;;;;;;;10.89;100.00;98428.50;5071842;28;20086;-66
2024/03/27 00:15:07;;;;;;;7.53;3.60;;;;;;;10.88;100.00;98433.16;5068737;28;20071;-66
2024/03/27 00:17:55;;;;;;;9.52;3.60;;;;;;;10.88;100.00;98437.81;5049089;28;20044;-66
2024/03/27 00:20:41;;;;;;;7.25;3.45;;;;;;;10.87;100.00;98430.75;5049917;28;20052;-66
2024/03/27 00:23:28;;;;;;;10.20;3.55;;;;;;;10.87;100.00;98438.94;5086375;28;20449;-66
2024/03/27 00:26:15;;;;;;;8.23;3.45;;;;;;;10.87;100.00;98434.31;5094487;28;20116;-65
2024/03/27 00:29:03;;;;;;;7.82;3.67;;;;;;;10.86;100.00;98429.97;5084266;28;20464;-66
2024/03/27 00:31:50;;;;;;;10.80;3.70;;;;;;;10.85;100.00;98422.94;5097157;28;20047;-66
2024/03/27 00:34:37;;;;;;;5.95;3.38;;;;;;;10.84;100.00;98420.53;5095978;28;20047;-66
2024/03/27 00:37:24;;;;;;;9.10;3.70;;;;;;;10.84;100.00;98417.78;5082674;28;20054;-66
2024/03/27 00:40:12;;;;;;;8.70;3.92;;;;;;;10.84;100.00;98415.06;5069385;28;20510;-66
2024/03/27 00:42:59;;;;;;;8.13;3.92;;;;;;;10.83;100.00;98421.66;5064194;28;20067;-66
2024/03/27 00:45:46;;;;;;;9.82;3.85;;;;;;;10.83;100.00;98413.50;5075241;28;20079;-66
2024/03/27 00:48:33;;;;;;;8.55;3.67;;;;;;;10.84;100.00;98409.63;5061795;28;20154;-67
2024/03/27 00:51:20;;;;;;;8.98;3.60;;;;;;;10.82;100.00;98412.69;5062708;28;20044;-66
2024/03/27 00:54:08;;;;;;;9.90;3.70;;;;;;;10.82;100.00;98395.53;5081331;28;20040;-66
2024/03/27 00:56:55;;;;;;;11.02;3.80;;;;;;;10.79;100.00;98393.47;5094234;28;20534;-66
2024/03/27 00:59:42;;;;;;;11.10;4.18;;;;;;;10.78;100.00;98402.78;5082707;28;20094;-66
2024/03/27 01:02:29;;;;;;;9.45;3.65;;;;;;;10.76;100.00;98405.03;5080416;28;20161;-66
2024/03/27 01:05:16;;;;;;;8.60;3.97;;;;;;;10.74;100.00;98410.00;5097047;28;20083;-66
2024/03/27 01:08:03;;;;;;;8.40;3.90;;;;;;;10.73;100.00;98392.09;5098642;28;20135;-66
2024/03/27 01:10:51;;;;;;;11.18;3.70;;;;;;;10.72;100.00;98401.38;5070111;28;20075;-64
2024/03/27 01:13:38;;;;;;;10.10;3.80;;;;;;;10.72;100.00;98402.16;5095695;28;20565;-65
2024/03/27 01:16:27;;;;;;;9.10;3.88;;;;;;;10.70;100.00;98392.72;5081938;28;20105;-64
2024/03/27 01:19:14;;;;;;;17.30;3.95;;;;;;;10.68;100.00;98384.91;5075339;28;20412;-66
2024/03/27 01:22:01;;;;;;;7.70;3.60;;;;;;;10.66;100.00;98387.94;5062244;28;20083;-66
2024/03/27 01:24:48;;;;;;;7.93;4.25;;;;;;;10.65;100.00;98380.91;5075730;28;20052;-66
2024/03/27 01:27:35;;;;;;;6.93;3.83;;;;;;;10.64;100.00;98378.50;5074673;28;20079;-67
2024/03/27 01:30:22;;;;;;;7.82;3.40;;;;;;;10.64;100.00;98390.19;5075365;28;20067;-66
2024/03/27 01:33:09;;;;;;;9.20;3.83;;;;;;;10.64;100.00;98390.19;5052818;28;20479;-66
2024/03/27 01:35:56;;;;;;;8.35;3.83;;;;;;;10.63;100.00;98394.03;5048333;28;20047;-66
2024/03/27 01:38:45;;;;;;;8.65;3.95;;;;;;;10.62;100.00;98392.44;5078940;28;20056;-67
2024/03/27 01:41:32;;;;;;;8.07;3.78;;;;;;;10.63;100.00;98391.31;5079099;28;20500;-66
2024/03/27 01:44:23;;;;;;;7.72;3.88;;;;;;;10.63;100.00;98391.31;5097068;28;20075;-66
2024/03/27 01:47:13;;;;;;;9.27;4.00;;;;;;;10.62;100.00;98376.09;5098940;28;20040;-66
2024/03/27 01:50:01;;;;;;;7.05;3.72;;;;;;;10.60;100.00;98372.91;5085235;28;20410;-66
2024/03/27 01:52:48;;;;;;;12.25;4.15;;;;;;;10.60;100.00;98366.66;5079858;28;20040;-67
2024/03/27 01:55:35;;;;;;;7.28;3.88;;;;;;;10.59;100.00;98354.19;5065768;28;20040;-66
2024/03/27 01:58:22;;;;;;;12.32;3.90;;;;;;;10.57;100.00;98346.34;5064405;28;20052;-67
2024/03/27 02:01:10;;;;;;;10.48;4.25;;;;;;;10.57;100.00;98340.88;5061218;28;20047;-67
2024/03/27 02:03:57;;;;;;;8.20;4.00;;;;;;;10.54;100.00;98338.03;5078712;28;20044;-67
2024/03/27 02:06:44;;;;;;;8.90;4.03;;;;;;;10.52;100.00;98332.91;5032718;28;20419;-66
2024/03/27 02:09:32;;;;;;;8.32;4.13;;;;;;;10.51;100.00;98331.31;5059060;28;20045;-65
2024/03/27 02:12:19;;;;;;;11.52;4.40;;;;;;;10.51;100.00;98331.31;5047795;28;20048;-65
2024/03/27 02:15:07;;;;;;;7.13;3.90;;;;;;;10.50;100.00;98332.44;5090637;28;20097;-66
2024/03/27 02:17:54;;;;;;;8.65;4.03;;;;;;;10.52;100.00;98326.69;5064489;28;20047;-68
2024/03/27 02:20:42;;;;;;;7.55;3.85;;;;;;;10.52;100.00;98324.75;5052382;28;20055;-67
2024/03/27 02:23:33;;;;;;;9.15;3.83;;;;;;;10.53;100.00;98329.06;5078478;28;20052;-66
2024/03/27 02:26:26;;;;;;;8.85;4.28;;;;;;;10.52;100.00;98330.19;5052211;28;20504;-66
2024/03/27 02:29:13;;;;;;;7.40;3.85;;;;;;;10.51;100.00;98322.34;5077140;28;20044;-66
2024/03/27 02:32:00;;;;;;;7.32;3.75;;;;;;;10.50;100.00;98329.72;5064895;28;20068;-67
2024/03/27 02:34:47;;;;;;;8.02;4.38;;;;;;;10.50;100.00;98327.00;5071997;28;20048;-66
2024/03/27 02:37:34;;;;;;;9.35;4.03;;;;;;;10.49;100.00;98333.56;5085844;28;20051;-65
2024/03/27 02:40:21;;;;;;;11.00;4.80;;;;;;;10.48;100.00;98329.25;5066520;28;20137;-66
2024/03/27 02:43:08;;;;;;;8.85;4.40;;;;;;;10.49;100.00;98324.63;5065540;28;20532;-65
2024/03/27 02:45:55;;;;;;;9.15;4.00;;;;;;;10.49;100.00;98319.97;5078574;28;20059;-66
2024/03/27 02:48:42;;;;;;;9.48;4.35;;;;;;;10.49;100.00;98317.25;5077771;28;20165;-67
2024/03/27 02:51:29;;;;;;;9.68;3.75;;;;;;;10.50;100.00;98313.38;5058358;28;20044;-67
2024/03/27 02:54:16;;;;;;;10.27;4.00;;;;;;;10.50;100.00;98304.41;5031461;28;20505;-67
2024/03/27 02:57:03;;;;;;;9.13;4.38;;;;;;;10.50;100.00;98302.50;5063250;28;20051;-66
2024/03/27 02:59:50;;;;;;;7.70;3.65;;;;;;;10.49;100.00;98311.78;5058939;28;20074;-66
2024/03/27 03:02:37;;;;;;;10.38;4.10;;;;;;;10.50;100.00;98301.69;5044465;28;20099;-67
2024/03/27 03:05:25;;;;;;;11.55;3.90;;;;;;;10.48;100.00;98310.19;5081819;28;20460;-66
2024/03/27 03:08:12;;;;;;;7.43;3.53;;;;;;;10.48;100.00;98309.41;5105070;27;20462;-67
2024/03/27 03:10:59;;;;;;;7.20;3.50;;;;;;;10.48;100.00;98310.19;5107424;28;20048;-65
2024/03/27 03:13:46;;;;;;;8.70;3.90;;;;;;;10.48;100.00;98312.91;5085146;28;20510;-66
2024/03/27 03:16:33;;;;;;;10.10;4.10;;;;;;;10.47;100.00;98319.50;5083530;28;20120;-67
2024/03/27 03:19:20;;;;;;;8.98;3.80;;;;;;;10.46;100.00;98317.88;5089551;28;20044;-66
2024/03/27 03:22:08;;;;;;;10.02;4.38;;;;;;;10.47;100.00;98327.66;5101100;28;20047;-67
2024/03/27 03:24:55;;;;;;;8.15;3.60;;;;;;;10.47;100.00;98327.66;5057162;28;20048;-66
2024/03/27 03:27:42;;;;;;;7.93;3.92;;;;;;;10.46;100.00;98334.22;5086800;28;20055;-67
2024/03/27 03:30:29;;;;;;;11.98;4.47;;;;;;;10.43;100.00;98334.88;5098534;28;20043;-66
2024/03/27 03:33:16;;;;;;;7.35;3.78;;;;;;;10.43;100.00;98341.13;5071015;28;20100;-67
2024/03/27 03:36:03;;;;;;;10.32;4.07;;;;;;;10.42;100.00;98338.75;5097503;28;20526;-67
2024/03/27 03:38:50;;;;;;;12.43;4.25;;;;;;;10.41;100.00;98337.94;5084660;27;20108;-66
2024/03/27 03:41:38;;;;;;;7.20;3.65;;;;;;;10.42;100.00;98327.84;5102710;27;20088;-66
2024/03/27 03:44:24;;;;;;;10.90;4.47;;;;;;;10.41;100.00;98337.94;5117458;27;20075;-66
2024/03/27 03:47:11;;;;;;;9.40;3.60;;;;;;;10.40;100.00;98330.09;5118150;27;20046;-66
2024/03/27 03:49:58;;;;;;;7.20;3.55;;;;;;;10.38;100.00;98316.00;5057949;28;20070;-66
2024/03/27 03:52:45;;;;;;;7.97;3.90;;;;;;;10.36;100.00;98312.81;5081298;28;20055;-67
2024/03/27 03:55:32;;;;;;;7.70;3.25;;;;;;;10.37;100.00;98309.78;5095335;28;20075;-67
2024/03/27 03:58:20;;;;;;;10.30;3.70;;;;;;;10.34;100.00;98315.06;5095078;28;20051;-66
2024/03/27 04:01:07;;;;;;;8.30;3.47;;;;;;;10.34;100.00;98306.91;5083888;28;20039;-66
2024/03/27 04:03:54;;;;;;;7.97;3.80;;;;;;;10.35;100.00;98300.34;5098044;28;20039;-66
2024/03/27 04:06:41;;;;;;;8.43;3.50;;;;;;;10.37;100.00;98298.09;5085073;28;20055;-66
2024/03/27 04:09:30;;;;;;;9.25;3.63;;;;;;;10.38;100.00;98288.78;5096142;28;20051;-67
2024/03/27 04:12:17;;;;;;;5.57;3.20;;;;;;;10.36;100.00;98277.44;5069996;28;20048;-66
2024/03/27 04:15:05;;;;;;;5.88;3.10;;;;;;;10.36;100.00;98280.16;5083021;28;20047;-66
2024/03/27 04:17:52;;;;;;;7.22;2.90;;;;;;;10.49;100.00;98281.06;5085424;28;20093;-66
2024/03/27 04:20:42;;;;;;;5.47;2.70;;;;;;;10.48;100.00;98282.97;5082866;28;20484;-66
2024/03/27 04:23:29;;;;;;;5.07;2.50;;;;;;;10.51;100.00;98289.66;5096533;28;20052;-67
2024/03/27 04:26:19;;;;;;;6.82;2.40;;;;;;;10.53;100.00;98288.22;5096500;28;20098;-66
2024/03/27 04:29:06;;;;;;;4.68;2.58;;;;;;;10.54;100.00;98280.88;5082721;27;20078;-67
2024/03/27 04:31:54;;;;;;;4.70;2.33;;;;;;;10.60;100.00;98285.75;5087642;27;20043;-67
2024/03/27 04:34:40;;;;;;;3.40;2.25;;;;;;;10.56;100.00;98293.00;5096230;28;20051;-67
2024/03/27 04:37:27;;;;;;;3.08;2.20;;;;;;;10.66;100.00;98284.44;5096043;28;20533;-66
2024/03/27 04:40:14;;;;;;;3.38;2.10;;;;;;;10.71;100.00;98290.84;5099505;27;20062;-66
2024/03/27 04:43:02;;;;;;;2.30;2.10;;;;;;;10.73;100.00;98291.31;5115997;27;20078;-66
2024/03/27 04:45:49;;;;;;;2.83;2.20;;;;;;;10.74;100.00;98295.63;5101962;27;20083;-66
2024/03/27 04:48:36;;;;;;;4.70;2.00;;;;;;;10.68;100.00;98295.03;5102324;27;20071;-66
2024/03/27 04:51:33;;;;;;;3.79;2.26;;;;;;;10.62;100.00;98299.84;4706899;28;10001952;-66
2024/03/27 04:54:20;;;;;;;2.90;2.13;;;;;;;10.61;100.00;98303.72;5084773;28;20071;-65
2024/03/27 04:57:07;;;;;;;2.97;2.00;;;;;;;10.56;100.00;98314.81;5091509;28;20140;-66
2024/03/27 04:59:54;;;;;;;2.05;1.90;;;;;;;10.57;100.00;98324.56;5078102;28;20047;-66
2024/03/27 05:02:41;;;;;;;3.25;2.38;;;;;;;10.64;100.00;98324.81;5071371;28;20455;-66
2024/03/27 05:05:28;;;;;;;2.05;1.85;;;;;;;10.56;100.00;98317.53;5077605;28;20122;-65
2024/03/27 05:08:16;;;;;;;3.97;2.50;;;;;;;10.59;100.00;98321.50;5079161;28;20075;-65
2024/03/27 05:11:03;;;;;;;4.40;2.65;;;;;;;10.71;100.00;98329.75;5073149;28;20093;-67
2024/03/27 05:13:50;;;;;;;5.13;2.67;;;;;;;10.75;100.00;98327.97;5103680;28;20077;-66
2024/03/27 05:16:37;;;;;;;3.47;2.45;;;;;;;10.82;100.00;98341.06;5098873;28;20048;-65
2024/03/27 05:19:24;;;;;;;3.33;2.63;;;;;;;10.65;100.00;98341.97;5066142;28;20058;-66
2024/03/27 05:22:15;;;;;;;4.32;2.42;;;;;;;10.63;100.00;98345.03;5093139;28;20467;-66
2024/03/27 05:25:04;;;;;;;3.75;2.28;;;;;;;10.59;100.00;98335.91;5072051;28;20051;-65
2024/03/27 05:27:51;;;;;;;3.20;2.60;;;;;;;10.55;100.00;98332.25;5070177;28;20423;-64
2024/03/27 05:30:38;;;;;;;3.03;2.20;;;;;;;10.52;100.00;98341.09;5074702;28;20185;-67
2024/03/27 05:33:26;;;;;;;4.53;2.53;;;;;;;10.50;100.00;98354.22;5103368;28;20039;-65
2024/03/27 05:36:13;;;;;;;7.28;2.90;;;;;;;10.49;100.00;98363.53;5051821;28;20048;-65
2024/03/27 05:39:01;;;;;;;3.08;2.45;;;;;;;10.42;100.00;98372.19;5077682;28;20048;-65
2024/03/27 05:41:48;;;;;;;4.60;2.45;;;;;;;10.38;100.00;98365.81;5072996;27;20047;-66
2024/03/27 05:44:36;;;;;;;5.20;2.80;;;;;;;10.39;100.00;98372.03;5084285;28;20492;-66
2024/03/27 05:47:23;;;;;;;6.82;2.80;;;;;;;10.37;100.00;98377.03;5084166;28;20067;-65
2024/03/27 05:50:10;;;;;;;4.60;2.63;;;;;;;10.33;100.00;98378.81;5084503;28;20070;-67
2024/03/27 05:52:57;;;;;;;6.50;2.95;;;;;;;10.31;100.00;98387.28;5099145;28;20453;-66
2024/03/27 05:55:55;;;;;;;5.40;3.03;;;;;;;10.32;100.00;98388.06;5072293;28;20056;-66
2024/03/27 05:58:42;;;;;;;7.25;3.30;;;;;;;10.31;100.00;98391.94;5084128;28;20040;-66
2024/03/27 06:01:29;;;;;;;6.63;3.38;;;;;;;10.31;100.00;98400.09;5083728;28;20066;-66
2024/03/27 06:04:16;;;;;;;19.60;5.43;;;;;;;10.36;100.00;98402.63;5086535;28;20067;-66
2024/03/27 06:07:03;;;;;;;13.90;4.45;;;;;;;10.35;100.00;98406.50;5097946;28;20075;-69
2024/03/27 06:09:50;;;;;;;9.38;3.30;;;;;;;10.33;100.00;98406.03;5082547;28;20177;-66
2024/03/27 06:12:38;;;;;;;12.30;4.13;;;;;;;10.33;100.00;98416.91;5058744;28;20132;-66
2024/03/27 06:15:25;;;;;;;17.10;5.38;;;;;;;10.35;100.00;98425.56;5097305;28;20546;-67
2024/03/27 06:18:12;;;;;;;14.68;4.55;;;;;;;10.30;100.00;98414.84;5098847;28;20051;-66
2024/03/27 06:20:59;;;;;;;7.93;3.50;;;;;;;10.29;100.00;98419.47;5113517;27;20222;-66
2024/03/27 06:23:47;;;;;;;15.50;5.32;;;;;;;10.31;100.00;98424.59;5101608;27;20050;-67
2024/03/27 06:26:34;;;;;;;5.68;2.90;;;;;;;10.28;100.00;98426.03;5070537;28;20081;-66
2024/03/27 06:29:21;;;;;;;7.57;3.90;;;;;;;10.31;100.00;98424.59;5060871;28;20044;-66
2024/03/27 06:32:10;;;;;;;4.13;3.22;;;;;;;10.28;100.00;98419.78;5081220;27;20538;-66
2024/03/27 06:34:57;;;;;;;8.02;3.80;;;;;;;10.28;100.00;98417.88;5081083;28;20059;-66
2024/03/27 06:37:44;;;;;;;15.15;5.28;;;;;;;10.40;100.00;98423.44;5093040;28;20040;-66
2024/03/27 06:40:31;;;;;;;7.22;3.45;;;;;;;10.30;100.00;98423.00;5080727;28;20522;-66
2024/03/27 06:43:21;;;;;;;4.85;3.30;;;;;;;10.23;100.00;98423.47;5081001;28;20048;-67
2024/03/27 06:46:08;;;;;;;4.25;3.10;;;;;;;10.21;100.00;98423.78;5101313;27;20131;-66
2024/03/27 06:49:07;;;;;;;6.60;3.17;;;;;;;10.17;100.00;98433.75;5080210;28;20134;-66
2024/03/27 06:51:54;;;;;;;6.00;3.55;;;;;;;10.14;100.00;98431.66;5089227;28;20224;-66
2024/03/27 06:54:45;;;;;;;5.55;3.80;;;;;;;10.11;100.00;98443.19;5054930;28;20071;-67
2024/03/27 06:57:33;;;;;;;5.85;3.35;;;;;;;10.10;100.00;98444.31;5081776;28;20437;-66
2024/03/27 07:00:21;;;;;;;5.05;3.63;;;;;;;10.07;100.00;98458.56;5074557;28;20091;-66
2024/03/27 07:03:08;;;;;;;5.60;3.60;;;;;;;10.07;100.00;98476.81;5047538;28;20372;-66
2024/03/27 07:05:55;;;;;;;6.88;4.18;;;;;;;10.05;100.00;98471.66;5062269;28;20064;-66
2024/03/27 07:08:42;;;;;;;10.80;4.03;;;;;;;10.04;100.00;98483.69;5064203;28;20531;-66
2024/03/27 07:11:30;;;;;;;7.80;4.88;;;;;;;10.02;100.00;98488.66;5058213;28;20044;-66
2024/03/27 07:14:17;;;;;;;9.10;5.68;;;;;;;9.94;100.00;98498.41;5046100;28;20083;-67
2024/03/27 07:17:03;;;;;;;8.98;6.57;;;;;;;9.79;100.00;98491.53;5074150;28;20135;-66
2024/03/27 07:19:50;;;;;;;10.02;6.68;;;;;;;9.73;100.00;98497.47;5074683;28;20040;-68
2024/03/27 07:22:37;;;;;;;10.90;6.28;;;;;;;9.68;100.00;98501.13;5056381;28;20075;-65
2024/03/27 07:25:24;;;;;;;9.90;6.75;;;;;;;9.69;100.00;98507.38;5075461;28;20431;-65
2024/03/27 07:28:12;;;;;;;10.90;6.75;;;;;;;9.68;100.00;98514.72;5069776;28;20048;-65
2024/03/27 07:30:59;;;;;;;10.93;6.68;;;;;;;9.66;100.00;98524.31;5044127;28;20075;-65
2024/03/27 07:33:46;;;;;;;9.73;6.55;;;;;;;9.64;100.00;98538.22;5070579;28;20073;-66
2024/03/27 07:36:34;;;;;;;10.40;6.88;;;;;;;9.64;100.00;98530.06;5067095;28;20040;-66
2024/03/27 07:39:21;;;;;;;11.55;6.80;;;;;;;9.67;100.00;98536.78;5049044;28;20094;-65
2024/03/27 07:42:08;;;;;;;9.45;5.97;;;;;;;9.69;100.00;98538.09;5061263;28;20048;-66
2024/03/27 07:44:55;;;;;;;8.73;5.20;;;;;;;9.78;100.00;98533.44;5059914;28;20473;-69
2024/03/27 07:47:43;;;;;;;10.60;5.63;;;;;;;9.87;100.00;98521.78;5067560;28;20130;-67
2024/03/27 07:50:30;;;;;;;9.48;4.90;;;;;;;9.95;100.00;98523.69;5076690;28;20083;-65
2024/03/27 07:53:17;;;;;;;10.90;5.45;;;;;;;9.96;100.00;98533.47;5050688;28;20142;-66
2024/03/27 07:56:04;;;;;;;10.60;5.40;;;;;;;10.01;100.00;98523.22;5048961;28;20071;-66
2024/03/27 07:58:53;;;;;;;9.30;5.40;;;;;;;9.99;100.00;98527.38;5063823;28;20483;-65
2024/03/27 08:01:40;;;;;;;7.13;3.95;;;;;;;10.00;100.00;98528.97;5043321;28;20495;-66
2024/03/27 08:04:27;;;;;;;8.35;3.90;;;;;;;9.99;100.00;98528.19;5051603;28;20048;-66
2024/03/27 08:07:14;;;;;;;10.05;4.53;;;;;;;10.05;100.00;98530.72;5063875;28;20044;-66
2024/03/27 08:10:03;;;;;;;5.68;3.58;;;;;;;10.03;100.00;98517.47;5078154;28;20106;-67
2024/03/27 08:12:51;;;;;;;8.32;3.83;;;;;;;10.05;100.00;98509.75;5050877;28;20036;-66
2024/03/27 08:15:39;;;;;;;5.18;3.45;;;;;;;10.09;100.00;98516.16;5077033;28;20048;-66
2024/03/27 08:18:26;;;;;;;7.97;3.53;;;;;;;10.10;100.00;98520.50;5050676;28;20048;-66
2024/03/27 08:21:13;;;;;;;7.63;3.60;;;;;;;10.08;100.00;98530.91;5077230;28;20072;-67
2024/03/27 08:24:00;;;;;;;14.80;3.83;;;;;;;10.08;100.00;98530.91;5077683;28;20114;-65
2024/03/27 08:26:47;;;;;;;7.70;4.30;;;;;;;10.08;100.00;98522.75;5036753;28;20535;-66
2024/03/27 08:29:34;;;;;;;6.90;3.60;;;;;;;10.04;100.00;98524.50;5075549;28;20059;-66
2024/03/27 08:32:21;;;;;;;9.02;4.05;;;;;;;10.04;100.00;98513.63;5063716;28;20075;-65
2024/03/27 08:35:08;;;;;;;6.80;3.67;;;;;;;10.03;100.00;98517.47;5077388;28;20048;-66
2024/03/27 08:37:55;;;;;;;6.50;3.55;;;;;;;10.08;100.00;98514.59;5066456;28;20534;-66
2024/03/27 08:40:49;;;;;;;6.35;4.10;;;;;;;10.12;100.00;98523.69;5090648;28;20080;-66
2024/03/27 08:43:36;;;;;;;7.93;4.07;;;;;;;10.12;100.00;98525.59;5089942;28;20055;-65
2024/03/27 08:46:23;;;;;;;7.53;3.92;;;;;;;10.14;100.00;98528.81;5104293;28;20048;-66
2024/03/27 08:49:13;;;;;;;10.27;4.18;;;;;;;10.17;100.00;98528.16;5105076;28;20071;-66
2024/03/27 08:52:00;;;;;;;7.57;4.47;;;;;;;10.14;100.00;98524.16;5092025;28;20036;-66
2024/03/27 08:54:47;;;;;;;10.52;4.70;;;;;;;10.17;100.00;98528.97;5076857;28;20089;-66
2024/03/27 08:57:34;;;;;;;11.23;5.00;;;;;;;10.17;100.00;98523.53;5062582;28;20127;-66
2024/03/27 09:00:21;;;;;;;8.75;4.57;;;;;;;10.12;100.00;98529.13;5091478;28;20059;-66
2024/03/27 09:03:08;;;;;;;8.25;4.32;;;;;;;10.10;100.00;98542.28;5076412;28;20048;-66
2024/03/27 09:05:56;;;;;;;9.63;4.20;;;;;;;10.14;100.00;98551.38;5063423;28;20075;-66
2024/03/27 09:08:43;;;;;;;8.40;4.65;;;;;;;10.13;100.00;98560.66;5095726;28;20043;-66
2024/03/27 09:11:30;;;;;;;10.55;4.75;;;;;;;10.09;100.00;98570.59;5083015;28;20055;-66
2024/03/27 09:14:17;;;;;;;8.93;4.63;;;;;;;10.07;100.00;98572.81;5096948;28;20077;-67
2024/03/27 09:17:04;;;;;;;8.60;4.43;;;;;;;10.08;100.00;98579.88;5082266;28;20039;-66
2024/03/27 09:19:51;;;;;;;9.45;4.97;;;;;;;10.09;100.00;98586.13;5096208;28;20065;-66
2024/03/27 09:22:38;;;;;;;7.80;4.20;;;;;;;10.07;100.00;98583.69;5095586;28;20048;-66
2024/03/27 09:25:26;;;;;;;8.57;4.20;;;;;;;10.08;100.00;98579.88;5068727;28;20039;-66
2024/03/27 09:28:13;;;;;;;8.27;4.47;;;;;;;10.07;100.00;98578.25;5069738;28;20078;-66
2024/03/27 09:31:04;;;;;;;7.97;4.40;;;;;;;10.09;100.00;98583.41;5054525;28;20044;-66
2024/03/27 09:33:51;;;;;;;9.05;4.60;;;;;;;10.10;100.00;98576.81;5082172;28;20036;-66
2024/03/27 09:36:38;;;;;;;6.85;4.07;;;;;;;10.10;100.00;98588.53;5085839;28;20052;-66
2024/03/27 09:39:25;;;;;;;9.00;4.15;;;;;;;10.12;100.00;98586.25;5078182;28;20468;-65
2024/03/27 09:42:13;;;;;;;6.82;4.07;;;;;;;10.13;100.00;98590.59;5077050;28;20040;-65
2024/03/27 09:45:00;;;;;;;9.65;4.55;;;;;;;10.13;100.00;98600.69;5063886;28;20044;-66
2024/03/27 09:47:47;;;;;;;7.53;4.35;;;;;;;10.11;100.00;98600.19;5092148;28;20079;-65
2024/03/27 09:50:35;;;;;;;9.00;4.18;;;;;;;10.12;100.00;98605.31;5083338;28;20050;-66
2024/03/27 09:53:22;;;;;;;8.00;4.38;;;;;;;10.15;100.00;98612.84;5084048;28;20495;-65
2024/03/27 09:56:10;;;;;;;7.55;4.18;;;;;;;10.18;100.00;98612.22;5085360;28;20154;-66
2024/03/27 09:58:57;;;;;;;9.32;4.65;;;;;;;10.18;100.00;98614.94;5111948;28;20047;-66
2024/03/27 10:01:45;;;;;;;7.97;4.20;;;;;;;10.13;100.00;98617.81;5066533;28;20048;-65
2024/03/27 10:04:32;;;;;;;8.15;4.35;;;;;;;10.15;100.00;98626.47;5066591;28;20115;-66
2024/03/27 10:07:21;;;;;;;8.65;4.82;;;;;;;10.10;100.00;98621.19;5065728;28;20075;-66
2024/03/27 10:10:08;;;;;;;9.55;4.10;;;;;;;10.12;100.00;98629.78;5065797;28;20082;-67
2024/03/27 10:12:57;;;;;;;8.68;4.35;;;;;;;10.16;100.00;98627.25;5064119;28;20060;-66
2024/03/27 10:15:49;;;;;;;7.65;4.68;;;;;;;10.14;100.00;98633.00;5066101;28;20048;-66
2024/03/27 10:18:39;;;;;;;8.85;4.30;;;;;;;10.20;100.00;98631.75;5072411;28;20043;-65
2024/03/27 10:21:27;;;;;;;9.55;4.70;;;;;;;10.19;100.00;98635.56;5072962;28;20051;-66
2024/03/27 10:24:15;;;;;;;10.68;5.28;;;;;;;10.16;100.00;98635.41;5081686;28;20055;-66
2024/03/27 10:27:03;;;;;;;7.88;4.93;;;;;;;10.12;100.00;98632.53;5051937;28;20089;-66
2024/03/27 10:29:50;;;;;;;8.02;4.18;;;;;;;10.13;100.00;98634.13;5065621;28;20083;-66
2024/03/27 10:32:38;;;;;;;8.13;4.93;;;;;;;10.11;100.00;98635.56;5079086;28;20051;-66
2024/03/27 10:35:33;;;;;;;10.70;4.60;;;;;;;10.13;100.00;98625.97;5066170;28;20074;-66
2024/03/27 10:38:23;;;;;;;9.82;5.30;;;;;;;10.13;100.00;98631.41;5055765;28;20047;-66
2024/03/27 10:41:11;;;;;;;9.23;4.47;;;;;;;10.16;100.00;98633.50;5046887;28;20058;-65
2024/03/27 10:43:58;;;;;;;9.93;4.60;;;;;;;10.20;100.00;98641.84;5044411;28;20080;-66
2024/03/27 10:46:48;;;;;;;8.05;4.55;;;;;;;10.21;100.00;98644.22;5044071;28;20425;-66
2024/03/27 10:49:35;;;;;;;8.50;4.88;;;;;;;10.18;100.00;98644.88;5068459;28;20032;-65
2024/03/27 10:52:23;;;;;;;10.52;4.82;;;;;;;10.30;100.00;98640.75;5084721;28;20043;-67
2024/03/27 10:55:11;;;;;;;8.23;4.50;;;;;;;10.28;100.00;98642.97;5071225;28;20047;-66
2024/03/27 10:58:00;;;;;;;8.75;4.68;;;;;;;10.22;100.00;98634.13;5098161;28;20492;-66
2024/03/27 11:00:47;;;;;;;7.90;4.07;;;;;;;10.19;100.00;98641.00;5085485;28;20051;-66
2024/03/27 11:03:38;;;;;;;7.88;3.90;;;;;;;10.26;100.00;98639.75;5066092;28;20067;-66
2024/03/27 11:06:26;;;;;;;8.35;4.40;;;;;;;10.34;100.00;98652.56;5050313;28;20092;-66
2024/03/27 11:09:16;;;;;;;8.52;4.55;;;;;;;10.40;100.00;98646.66;5063108;28;20052;-66
2024/03/27 11:12:04;;;;;;;8.90;4.15;;;;;;;10.32;100.00;98652.91;5065030;28;20043;-65
2024/03/27 11:14:52;;;;;;;6.88;3.78;;;;;;;10.35;100.00;98654.19;5079318;28;20448;-65
2024/03/27 11:17:39;;;;;;;11.32;4.25;;;;;;;10.44;100.00;98655.00;5078491;28;20080;-65
2024/03/27 11:20:26;;;;;;;7.00;4.50;;;;;;;10.37;100.00;98658.19;5063923;28;20128;-66
2024/03/27 11:23:13;;;;;;;7.40;3.95;;;;;;;10.40;100.00;98662.19;5078617;28;20052;-66
2024/03/27 11:26:02;;;;;;;7.18;4.20;;;;;;;10.42;100.00;98659.97;5064411;28;20084;-65
2024/03/27 11:28:52;;;;;;;8.68;4.25;;;;;;;10.47;100.00;98667.16;5084103;28;20447;-67
2024/03/27 11:31:43;;;;;;;8.45;4.05;;;;;;;10.37;100.00;98660.13;5098428;28;20048;-66
2024/03/27 11:34:30;;;;;;;8.18;4.25;;;;;;;10.37;100.00;98660.91;5086045;28;20475;-66
2024/03/27 11:37:18;;;;;;;7.57;4.10;;;;;;;10.34;100.00;98663.47;5060325;28;20052;-65
2024/03/27 11:40:08;;;;;;;7.63;4.40;;;;;;;10.39;100.00;98650.53;5077975;28;20055;-66
2024/03/27 11:42:55;;;;;;;6.50;4.20;;;;;;;10.35;100.00;98656.91;5056694;28;20040;-66
2024/03/27 11:45:43;;;;;;;7.75;4.15;;;;;;;10.33;100.00;98657.22;5053833;28;20075;-66
2024/03/27 11:48:30;;;;;;;8.32;4.18;;;;;;;10.33;100.00;98661.88;5065345;28;20044;-66
2024/03/27 11:51:17;;;;;;;7.22;4.10;;;;;;;10.34;100.00;98658.84;5063961;28;20083;-66
2024/03/27 11:54:04;;;;;;;8.15;4.90;;;;;;;10.35;100.00;98655.00;5083186;28;20040;-66
2024/03/27 11:56:51;;;;;;;8.07;4.90;;;;;;;10.42;100.00;98655.31;5097114;28;20044;-65
2024/03/27 11:59:38;;;;;;;7.63;4.55;;;;;;;10.43;100.00;98665.06;5070326;28;20044;-65
2024/03/27 12:02:26;;;;;;;8.25;4.55;;;;;;;10.44;100.00;98660.44;5083804;28;20055;-66
2024/03/27 12:05:13;;;;;;;7.00;4.13;;;;;;;10.54;100.00;98662.84;5054945;28;20056;-66
2024/03/27 12:08:00;;;;;;;6.30;4.05;;;;;;;10.53;100.00;98677.56;5030327;28;20048;-65
2024/03/27 12:10:47;;;;;;;4.43;3.33;;;;;;;10.59;100.00;98670.84;5042986;28;20083;-66
2024/03/27 12:13:37;;;;;;;8.20;4.22;;;;;;;10.64;100.00;98670.69;5057439;28;20067;-66
2024/03/27 12:16:24;;;;;;;7.68;4.28;;;;;;;10.70;100.00;98667.78;5017112;28;20090;-65
2024/03/27 12:19:11;;;;;;;7.60;4.30;;;;;;;10.67;100.00;98658.34;5061474;28;20072;-65
2024/03/27 12:21:58;;;;;;;9.18;4.72;;;;;;;10.65;100.00;98657.84;5075202;28;20047;-65
2024/03/27 12:24:47;;;;;;;8.07;5.03;;;;;;;10.61;100.00;98651.47;5074371;28;20040;-65
2024/03/27 12:27:34;;;;;;;9.70;5.30;;;;;;;10.55;100.00;98648.09;4373992;28;10000601;-66
2024/03/27 12:30:21;;;;;;;8.50;5.20;;;;;;;10.49;100.00;98622.16;5052982;28;20048;-65
2024/03/27 12:33:08;;;;;;;8.20;5.15;;;;;;;10.43;100.00;98623.44;5040073;28;20044;-66
2024/03/27 12:35:55;;;;;;;7.20;4.07;;;;;;;10.49;100.00;98614.00;5060018;28;20128;-65
2024/03/27 12:38:42;;;;;;;10.20;4.43;;;;;;;10.50;100.00;98604.69;5057725;28;20040;-65
2024/03/27 12:41:29;;;;;;;6.93;4.25;;;;;;;10.52;100.00;98612.56;5059892;28;20056;-66
2024/03/27 12:44:18;;;;;;;7.18;4.85;;;;;;;10.50;100.00;98612.88;5050900;28;20070;-66
2024/03/27 12:47:05;;;;;;;8.40;4.78;;;;;;;10.51;100.00;98606.31;5048058;28;20099;-65
2024/03/27 12:49:52;;;;;;;6.57;4.40;;;;;;;10.48;100.00;98596.03;5046984;28;20468;-66
2024/03/27 12:52:39;;;;;;;6.93;4.85;;;;;;;10.54;100.00;98596.69;5069088;28;20068;-66
2024/03/27 12:55:26;;;;;;;9.65;4.80;;;;;;;10.48;100.00;98606.94;5071981;28;20076;-67
2024/03/27 12:58:13;;;;;;;8.65;5.20;;;;;;;10.48;100.00;98604.22;5058713;28;20047;-67